Time;durP1;ratioP1;P1;durP2;ratioP2;P2;SDS_P1;SDS_P2;PMS_P1;PMS_P2;Temp;Humidity;BMP_temperature;BMP_pressure;BME280_temperature;BME280_humidity;BME280_pressure;Samples;Min_cycle;Max_cycle;Signal;HPM_P1;HPM_P2
2022/01/15 00:00:53;;;;;;;33.03;8.77;;;6.70;99.90;;;;;;5061597;28;20090;-53
2022/01/15 00:03:18;;;;;;;26.73;8.43;;;6.80;99.90;;;;;;5062067;28;20500;-54
2022/01/15 00:05:45;;;;;;;37.65;8.98;;;6.80;99.90;;;;;;5060453;28;20052;-55
2022/01/15 00:08:11;;;;;;;35.33;9.55;;;6.80;99.90;;;;;;5061887;28;20174;-54
2022/01/15 00:10:37;;;;;;;37.80;9.25;;;6.80;99.90;;;;;;5061999;28;20033;-52
2022/01/15 00:13:03;;;;;;;25.63;8.88;;;6.70;99.90;;;;;;5042017;28;20481;-53
2022/01/15 00:15:37;;;;;;;35.55;10.38;;;6.80;99.90;;;;;;5061760;28;20029;-53
2022/01/15 00:18:12;;;;;;;24.98;10.00;;;6.80;99.90;;;;;;5062733;28;20025;-52
2022/01/15 00:20:38;;;;;;;34.42;11.40;;;6.70;99.90;;;;;;5061815;28;20032;-55
2022/01/15 00:23:04;;;;;;;28.98;9.27;;;6.70;99.90;;;;;;5060660;28;20025;-53
2022/01/15 00:25:31;;;;;;;43.10;11.75;;;6.60;99.90;;;;;;5061954;28;20020;-55
2022/01/15 00:27:57;;;;;;;34.83;10.85;;;6.60;99.90;;;;;;5061869;28;20150;-56
2022/01/15 00:30:24;;;;;;;42.40;11.10;;;6.60;99.90;;;;;;5059979;28;20021;-56
2022/01/15 00:32:52;;;;;;;36.65;10.82;;;6.50;99.90;;;;;;5061570;28;20488;-51
2022/01/15 00:35:19;;;;;;;45.05;13.18;;;6.50;99.90;;;;;;5061868;28;20068;-52
2022/01/15 00:37:45;;;;;;;31.42;11.25;;;6.40;99.90;;;;;;5060397;28;20021;-55
2022/01/15 00:40:14;;;;;;;37.40;11.77;;;6.40;99.90;;;;;;5043849;28;20025;-51
2022/01/15 00:42:40;;;;;;;36.97;10.48;;;6.40;99.90;;;;;;5044182;28;20029;-52
2022/01/15 00:45:10;;;;;;;35.95;10.90;;;6.40;99.90;;;;;;5059988;28;20013;-52
2022/01/15 00:47:36;;;;;;;33.55;10.55;;;6.30;99.90;;;;;;5060631;28;20422;-54
2022/01/15 00:50:03;;;;;;;50.08;11.55;;;6.30;99.90;;;;;;5061905;28;20047;-53
2022/01/15 00:52:29;;;;;;;42.17;10.40;;;6.20;99.90;;;;;;5062391;28;20025;-51
2022/01/15 00:54:54;;;;;;;33.78;9.65;;;6.20;99.90;;;;;;5064823;28;20051;-51
2022/01/15 00:57:21;;;;;;;47.67;10.90;;;6.10;99.90;;;;;;5066126;28;20473;-50
2022/01/15 00:59:46;;;;;;;32.40;10.38;;;6.10;99.90;;;;;;5064407;28;20028;-53
2022/01/15 01:02:12;;;;;;;39.28;8.93;;;6.10;99.90;;;;;;5065466;28;20025;-53
2022/01/15 01:04:37;;;;;;;36.67;9.85;;;6.10;99.90;;;;;;5065633;28;20100;-52
2022/01/15 01:07:03;;;;;;;43.17;11.27;;;6.10;99.90;;;;;;5045895;28;20017;-53
2022/01/15 01:09:46;;;;;;;40.75;11.60;;;6.10;99.90;;;;;;5065390;28;20029;-54
2022/01/15 01:20:27;;;;;;;50.80;16.73;;;6.10;99.90;;;;;;5065221;28;20101;-55
2022/01/15 01:22:56;;;;;;;54.38;17.48;;;6.10;99.90;;;;;;5064726;28;20032;-54
2022/01/15 01:25:23;;;;;;;44.50;15.63;;;6.10;99.90;;;;;;5063869;28;20024;-55
2022/01/15 01:27:53;;;;;;;49.90;15.75;;;6.10;99.90;;;;;;5065496;28;20468;-54
2022/01/15 01:35:19;;;;;;;46.28;17.20;;;5.90;99.90;;;;;;5064763;28;20016;-53
2022/01/15 01:37:49;;;;;;;51.72;18.13;;;5.80;99.90;;;;;;5065794;28;20127;-54
2022/01/15 01:40:20;;;;;;;59.70;16.77;;;5.90;99.90;;;;;;5047416;28;20071;-53
2022/01/15 01:43:09;;;;;;;61.67;20.15;;;5.90;99.90;;;;;;5063746;28;20032;-58
2022/01/15 01:45:34;;;;;;;70.07;20.40;;;5.80;99.90;;;;;;5047655;28;20055;-54
2022/01/15 01:48:00;;;;;;;61.80;20.88;;;5.80;99.90;;;;;;5068320;28;20458;-55
2022/01/15 01:50:28;;;;;;;63.17;20.92;;;5.80;99.90;;;;;;5066195;28;20027;-54
2022/01/15 01:52:58;;;;;;;56.78;19.20;;;5.80;99.90;;;;;;5064494;28;20086;-54
2022/01/15 01:55:26;;;;;;;68.80;20.65;;;5.90;99.90;;;;;;5036392;28;20029;-56
2022/01/15 01:57:53;;;;;;;64.88;19.67;;;5.80;99.90;;;;;;5053849;28;20451;-53
2022/01/15 02:00:20;;;;;;;63.88;17.77;;;5.80;99.90;;;;;;5054010;28;20033;-55
2022/01/15 02:02:50;;;;;;;59.97;17.13;;;5.80;99.90;;;;;;5054609;28;20082;-55
2022/01/15 02:05:16;;;;;;;59.67;18.85;;;5.70;99.90;;;;;;5055631;28;20504;-54
2022/01/15 02:07:43;;;;;;;64.35;18.13;;;5.70;99.90;;;;;;5055169;28;20048;-53
2022/01/15 02:10:12;;;;;;;64.95;18.25;;;5.70;99.90;;;;;;5055536;28;20126;-53
2022/01/15 02:12:38;;;;;;;66.90;18.33;;;5.70;99.90;;;;;;5055028;28;20029;-51
2022/01/15 02:15:10;;;;;;;57.53;17.60;;;5.70;99.90;;;;;;5037233;28;20033;-53
2022/01/15 02:17:36;;;;;;;56.72;15.52;;;5.60;99.90;;;;;;5055120;28;20470;-56
2022/01/15 02:25:58;;;;;;;66.80;18.42;;;5.60;99.90;;;;;;5055442;28;20436;-52
2022/01/15 02:28:25;;;;;;;70.63;19.75;;;5.60;99.90;;;;;;5054989;28;20112;-53
2022/01/15 02:30:53;;;;;;;67.47;20.75;;;5.60;99.90;;;;;;5054641;28;20174;-55
2022/01/15 02:33:18;;;;;;;64.43;18.85;;;5.70;99.90;;;;;;5054513;28;20093;-53
2022/01/15 02:35:44;;;;;;;70.95;21.70;;;5.70;99.90;;;;;;5054569;28;20033;-51
2022/01/15 02:38:12;;;;;;;80.03;23.70;;;5.70;99.90;;;;;;5054513;28;20036;-52
2022/01/15 02:40:38;;;;;;;73.40;21.88;;;5.80;99.90;;;;;;5054898;28;20029;-53
2022/01/15 02:43:05;;;;;;;85.22;22.67;;;5.80;99.90;;;;;;5055483;28;20023;-52
2022/01/15 02:45:36;;;;;;;78.32;22.77;;;5.80;99.90;;;;;;5054634;28;20509;-51
2022/01/15 02:48:02;;;;;;;;;;;5.80;99.90;;;;;;5054785;28;20478;-51
2022/01/15 02:50:29;;;;;;;70.20;21.65;;;5.90;99.90;;;;;;5054616;28;19905;-54
2022/01/15 02:52:55;;;;;;;76.97;21.27;;;5.90;99.90;;;;;;5054130;28;20103;-55
2022/01/15 02:55:21;;;;;;;84.40;23.30;;;5.90;99.90;;;;;;5054244;28;20196;-52
2022/01/15 02:57:46;;;;;;;81.38;23.02;;;5.90;99.90;;;;;;5054509;28;20036;-55
2022/01/15 03:00:12;;;;;;;90.50;24.33;;;5.90;99.90;;;;;;5054128;28;20087;-54
2022/01/15 03:02:38;;;;;;;82.15;22.38;;;5.90;99.90;;;;;;5054052;28;20140;-51
2022/01/15 03:05:04;;;;;;;77.85;21.58;;;5.90;99.90;;;;;;5054381;28;20109;-52
2022/01/15 03:07:30;;;;;;;82.93;23.33;;;5.90;99.90;;;;;;5054513;28;20036;-53
2022/01/15 03:09:55;;;;;;;81.78;23.73;;;5.80;99.90;;;;;;5056417;28;20025;-52
2022/01/15 03:12:21;;;;;;;105.93;24.20;;;5.90;99.90;;;;;;5057987;28;20032;-52
2022/01/15 03:14:48;;;;;;;81.38;23.50;;;5.90;99.90;;;;;;5058672;28;20079;-54
2022/01/15 03:17:14;;;;;;;84.07;23.27;;;5.90;99.90;;;;;;5041045;28;20060;-51
2022/01/15 03:19:39;;;;;;;80.13;25.20;;;5.90;99.90;;;;;;5058806;28;20049;-52
2022/01/15 03:22:05;;;;;;;70.47;21.67;;;5.80;99.90;;;;;;5058360;28;20025;-53
2022/01/15 03:24:30;;;;;;;73.28;21.10;;;5.70;99.90;;;;;;5058135;28;20024;-53
2022/01/15 03:26:56;;;;;;;76.38;22.05;;;5.70;99.90;;;;;;5055089;28;20033;-54
2022/01/15 03:29:21;;;;;;;86.15;21.92;;;5.70;99.90;;;;;;5054143;28;20040;-54
2022/01/15 03:31:47;;;;;;;81.22;22.40;;;5.60;99.90;;;;;;5068039;22;20059;-55
2022/01/15 03:34:12;;;;;;;86.53;22.98;;;5.60;99.90;;;;;;5073955;28;20397;-56
2022/01/15 03:36:38;;;;;;;93.32;21.42;;;5.60;99.90;;;;;;5074146;28;20047;-56
2022/01/15 03:39:03;;;;;;;78.43;19.60;;;5.60;99.90;;;;;;5074108;28;20024;-55
2022/01/15 03:41:29;;;;;;;100.85;18.48;;;5.50;99.90;;;;;;5073703;28;20024;-56
2022/01/15 03:43:55;;;;;;;93.45;18.77;;;5.60;99.90;;;;;;5073784;28;20030;-55
2022/01/15 03:46:21;;;;;;;72.90;19.15;;;5.50;99.90;;;;;;5073609;28;20051;-57
2022/01/15 03:48:47;;;;;;;69.60;19.17;;;5.40;99.90;;;;;;5073601;28;20052;-56
2022/01/15 03:51:13;;;;;;;68.22;18.45;;;5.40;99.90;;;;;;5073815;28;20437;-55
2022/01/15 03:53:39;;;;;;;49.58;16.30;;;5.40;99.90;;;;;;5073774;28;20100;-55
2022/01/15 03:56:05;;;;;;;62.72;17.77;;;5.30;99.90;;;;;;5073854;28;20496;-55
2022/01/15 03:58:30;;;;;;;64.78;17.92;;;5.30;99.90;;;;;;5073770;28;20393;-56
2022/01/15 04:00:56;;;;;;;47.72;14.70;;;5.30;99.90;;;;;;5073323;28;20054;-55
2022/01/15 04:03:21;;;;;;;56.67;12.30;;;5.40;99.90;;;;;;5073458;28;20024;-54
2022/01/15 04:05:47;;;;;;;57.30;12.15;;;5.30;99.90;;;;;;5073758;28;20028;-55
2022/01/15 04:08:12;;;;;;;48.67;13.15;;;5.20;99.90;;;;;;5073504;28;20025;-56
2022/01/15 04:10:38;;;;;;;50.78;13.52;;;5.30;99.90;;;;;;5073541;28;20048;-56
2022/01/15 04:13:04;;;;;;;55.65;13.82;;;5.20;99.90;;;;;;5073123;28;20028;-55
2022/01/15 04:15:29;;;;;;;43.55;13.05;;;5.30;99.90;;;;;;5074163;28;20028;-56
2022/01/15 04:17:55;;;;;;;53.53;14.30;;;5.30;99.90;;;;;;5073399;28;20111;-56
2022/01/15 04:20:22;;;;;;;43.20;12.02;;;5.30;99.90;;;;;;5073631;28;20036;-56
2022/01/15 04:22:50;;;;;;;44.53;13.45;;;5.30;99.90;;;;;;5073288;28;20028;-54
2022/01/15 04:25:17;;;;;;;39.30;12.18;;;5.30;99.90;;;;;;5073028;28;20021;-56
2022/01/15 04:27:44;;;;;;;48.78;13.43;;;5.30;99.90;;;;;;5072463;28;20444;-55
2022/01/15 04:30:12;;;;;;;42.25;13.15;;;5.30;99.90;;;;;;5073138;28;20028;-56
2022/01/15 04:32:38;;;;;;;50.85;13.25;;;5.30;99.90;;;;;;5072816;28;20406;-55
2022/01/15 04:35:05;;;;;;;48.08;12.05;;;5.40;99.90;;;;;;5073372;28;20035;-55
2022/01/15 04:37:40;;;;;;;60.60;12.63;;;5.40;99.90;;;;;;5072707;28;20115;-55
2022/01/15 04:40:08;;;;;;;43.55;12.43;;;5.30;99.90;;;;;;5073137;28;20032;-55
2022/01/15 04:42:34;;;;;;;45.80;13.02;;;5.40;99.90;;;;;;5072665;28;20044;-55
2022/01/15 04:45:01;;;;;;;56.97;14.82;;;5.40;99.90;;;;;;5072905;28;20587;-55
2022/01/15 04:47:26;;;;;;;39.78;12.13;;;5.40;99.90;;;;;;5073099;28;20036;-54
2022/01/15 04:49:54;;;;;;;35.60;11.88;;;5.40;99.90;;;;;;5073391;28;20036;-56
2022/01/15 04:52:23;;;;;;;43.97;12.32;;;5.40;99.90;;;;;;5073313;28;20442;-54
2022/01/15 04:54:49;;;;;;;42.58;12.65;;;5.30;99.90;;;;;;5072900;28;20123;-56
2022/01/15 04:57:14;;;;;;;43.58;12.55;;;5.40;99.90;;;;;;5073038;28;20132;-55
2022/01/15 04:59:40;;;;;;;35.33;13.07;;;5.40;99.90;;;;;;5072738;28;20033;-56
2022/01/15 05:02:05;;;;;;;38.50;14.05;;;5.40;99.90;;;;;;5072951;28;20081;-57
2022/01/15 05:04:31;;;;;;;31.33;12.15;;;5.40;99.90;;;;;;5072907;28;20036;-56
2022/01/15 05:06:56;;;;;;;34.50;11.57;;;5.30;99.90;;;;;;5072598;28;20024;-56
2022/01/15 05:09:22;;;;;;;41.72;13.43;;;5.40;99.90;;;;;;5073026;28;20021;-56
2022/01/15 05:11:55;;;;;;;32.90;13.38;;;5.40;99.90;;;;;;5072476;28;20039;-55
2022/01/15 05:14:22;;;;;;;30.38;12.57;;;5.30;99.90;;;;;;5072943;28;20443;-56
2022/01/15 05:16:47;;;;;;;29.38;12.85;;;5.30;99.90;;;;;;5072641;28;20024;-55
2022/01/15 05:19:13;;;;;;;29.92;12.15;;;5.30;99.90;;;;;;5072683;28;20081;-56
2022/01/15 05:21:38;;;;;;;31.63;13.63;;;5.30;99.90;;;;;;5072636;28;20028;-54
2022/01/15 05:24:06;;;;;;;34.72;13.10;;;5.30;99.90;;;;;;5072772;28;20025;-56
2022/01/15 05:26:31;;;;;;;34.25;13.65;;;5.30;99.90;;;;;;5072766;28;20021;-55
2022/01/15 05:28:57;;;;;;;37.03;12.95;;;5.40;99.90;;;;;;5073008;28;20016;-56
2022/01/15 05:31:24;;;;;;;32.97;12.43;;;5.40;99.90;;;;;;5072754;28;20470;-56
2022/01/15 05:33:50;;;;;;;35.58;14.13;;;5.40;99.90;;;;;;5072509;28;20409;-57
2022/01/15 05:36:15;;;;;;;27.27;12.70;;;5.40;99.90;;;;;;5072596;28;20024;-55
2022/01/15 05:38:41;;;;;;;36.92;13.52;;;5.40;99.90;;;;;;5074928;28;20024;-55
2022/01/15 05:41:07;;;;;;;38.90;13.85;;;5.50;99.90;;;;;;5076204;28;20035;-57
2022/01/15 05:43:32;;;;;;;36.58;13.70;;;5.50;99.90;;;;;;5076071;28;20086;-56
2022/01/15 05:45:58;;;;;;;35.90;13.25;;;5.50;99.90;;;;;;5076348;28;20020;-56
2022/01/15 05:48:23;;;;;;;41.88;15.40;;;5.50;99.90;;;;;;5076066;28;20426;-56
2022/01/15 05:50:49;;;;;;;39.30;14.77;;;5.50;99.90;;;;;;5076175;28;20103;-56
2022/01/15 05:53:14;;;;;;;38.67;14.95;;;5.50;99.90;;;;;;5076079;28;20028;-55
2022/01/15 05:55:40;;;;;;;39.72;13.70;;;5.50;99.90;;;;;;5075969;28;20554;-54
2022/01/15 05:58:07;;;;;;;35.45;13.13;;;5.40;99.90;;;;;;5075824;28;20056;-56
2022/01/15 06:00:33;;;;;;;36.78;14.02;;;5.50;99.90;;;;;;5075682;28;20047;-56
2022/01/15 06:02:58;;;;;;;37.42;14.55;;;5.40;99.90;;;;;;5076249;28;20031;-56
2022/01/15 06:05:24;;;;;;;34.67;14.35;;;5.50;99.90;;;;;;5076210;28;20025;-55
2022/01/15 06:07:49;;;;;;;38.95;15.15;;;5.40;99.90;;;;;;5076264;28;20033;-57
2022/01/15 06:10:15;;;;;;;42.75;15.43;;;5.40;99.90;;;;;;5075479;28;20047;-57
2022/01/15 06:12:44;;;;;;;32.95;14.63;;;5.40;99.90;;;;;;5075602;28;20024;-56
2022/01/15 06:15:15;;;;;;;38.35;13.75;;;5.50;99.90;;;;;;5076218;28;20028;-58
2022/01/15 06:17:42;;;;;;;37.30;15.65;;;5.50;99.90;;;;;;5076030;28;20033;-51
2022/01/15 06:20:09;;;;;;;37.30;15.10;;;5.40;99.90;;;;;;5075072;28;20060;-56
2022/01/15 06:22:35;;;;;;;44.33;16.08;;;5.40;99.90;;;;;;5075442;28;20497;-55
2022/01/15 06:25:03;;;;;;;34.00;14.80;;;5.50;99.90;;;;;;5075476;28;20073;-54
2022/01/15 06:27:30;;;;;;;39.38;15.18;;;5.50;99.90;;;;;;5075792;28;20051;-55
2022/01/15 06:29:56;;;;;;;37.60;15.00;;;5.60;99.90;;;;;;5075658;28;20120;-54
2022/01/15 06:32:22;;;;;;;39.28;14.68;;;5.50;99.90;;;;;;5075290;28;20040;-54
2022/01/15 06:34:48;;;;;;;39.20;14.38;;;5.60;99.90;;;;;;5075270;28;20116;-52
2022/01/15 06:37:14;;;;;;;43.30;17.15;;;5.60;99.90;;;;;;5075583;28;20431;-56
2022/01/15 06:39:39;;;;;;;38.50;15.25;;;5.60;99.90;;;;;;5074046;28;20033;-55
2022/01/15 06:42:05;;;;;;;41.38;15.63;;;5.50;99.90;;;;;;5072946;28;20035;-53
2022/01/15 06:44:31;;;;;;;45.90;15.63;;;5.50;99.90;;;;;;5072965;28;20033;-54
2022/01/15 06:46:57;;;;;;;43.25;16.77;;;5.50;99.90;;;;;;5073088;28;20549;-55
2022/01/15 06:49:22;;;;;;;47.55;17.10;;;5.40;99.90;;;;;;5073703;28;20028;-57
2022/01/15 06:51:48;;;;;;;51.08;17.45;;;5.50;99.90;;;;;;5071764;28;20157;-56
2022/01/15 06:54:14;;;;;;;45.28;16.60;;;5.50;99.90;;;;;;5075151;28;20093;-56
2022/01/15 06:56:39;;;;;;;39.20;16.02;;;5.50;99.90;;;;;;5075129;28;20036;-55
2022/01/15 06:59:05;;;;;;;50.30;17.83;;;5.50;99.90;;;;;;5074787;28;20032;-53
2022/01/15 07:01:30;;;;;;;49.95;17.42;;;5.50;99.90;;;;;;5075305;28;20142;-56
2022/01/15 07:03:56;;;;;;;50.50;19.50;;;5.50;99.90;;;;;;5074679;28;20517;-57
2022/01/15 07:06:21;;;;;;;46.63;17.60;;;5.50;99.90;;;;;;5074292;28;20113;-55
2022/01/15 07:08:47;;;;;;;40.05;15.93;;;5.60;99.90;;;;;;5074174;28;20543;-57
2022/01/15 07:11:13;;;;;;;57.08;18.17;;;5.50;99.90;;;;;;5073994;28;20032;-57
2022/01/15 07:13:39;;;;;;;45.35;16.52;;;5.50;99.90;;;;;;5073974;28;20074;-53
2022/01/15 07:16:04;;;;;;;40.33;16.63;;;5.60;99.90;;;;;;5073891;28;20434;-58
2022/01/15 07:18:30;;;;;;;43.67;16.98;;;5.60;99.90;;;;;;5074022;28;20033;-57
2022/01/15 07:20:55;;;;;;;43.65;17.05;;;5.60;99.90;;;;;;5073829;28;20119;-53
2022/01/15 07:23:21;;;;;;;40.88;16.20;;;5.60;99.90;;;;;;5073826;28;20020;-57
2022/01/15 07:25:47;;;;;;;40.05;16.77;;;5.50;99.90;;;;;;5073847;28;20021;-57
2022/01/15 07:28:12;;;;;;;44.47;16.67;;;5.60;99.90;;;;;;5073780;28;20099;-55
2022/01/15 07:30:38;;;;;;;37.05;14.30;;;5.60;99.90;;;;;;5073745;28;20024;-57
2022/01/15 07:33:04;;;;;;;33.58;15.85;;;5.60;99.90;;;;;;5055417;28;20442;-52
2022/01/15 07:35:30;;;;;;;31.05;13.88;;;5.60;99.90;;;;;;5074337;28;20518;-54
2022/01/15 07:37:56;;;;;;;33.97;15.20;;;5.60;99.90;;;;;;5073830;28;20097;-56
2022/01/15 07:40:22;;;;;;;33.13;15.27;;;5.60;99.90;;;;;;5073694;28;20166;-56
2022/01/15 07:42:47;;;;;;;31.15;14.48;;;5.60;99.90;;;;;;5073708;28;20466;-55
2022/01/15 07:45:15;;;;;;;30.73;14.82;;;5.60;99.90;;;;;;5073839;28;20031;-54
2022/01/15 07:47:42;;;;;;;33.05;14.32;;;5.70;99.90;;;;;;5073805;28;20020;-56
2022/01/15 07:50:11;;;;;;;36.85;16.67;;;5.70;99.90;;;;;;5074051;28;20086;-56
2022/01/15 07:52:36;;;;;;;41.63;16.40;;;5.70;99.90;;;;;;5073954;28;20060;-55
2022/01/15 07:55:04;;;;;;;36.15;16.88;;;5.70;99.90;;;;;;5073710;28;20035;-51
2022/01/15 07:57:29;;;;;;;32.38;14.85;;;5.70;99.90;;;;;;5055631;28;20060;-56
2022/01/15 07:59:55;;;;;;;35.78;15.52;;;5.60;99.90;;;;;;5074082;28;20178;-55
2022/01/15 08:02:21;;;;;;;36.92;15.75;;;5.60;99.90;;;;;;5073982;28;20032;-56
2022/01/15 08:04:46;;;;;;;40.17;16.52;;;5.60;99.90;;;;;;5056761;28;20025;-56
2022/01/15 08:07:12;;;;;;;35.30;16.92;;;5.60;99.90;;;;;;5074425;28;20048;-52
2022/01/15 08:09:38;;;;;;;39.03;16.60;;;5.60;99.90;;;;;;5074150;28;20039;-55
2022/01/15 08:12:04;;;;;;;43.30;18.25;;;5.60;99.90;;;;;;5056305;28;20548;-57
2022/01/15 08:14:30;;;;;;;48.97;19.52;;;5.60;99.90;;;;;;5074357;28;20036;-56
2022/01/15 08:16:56;;;;;;;43.90;18.33;;;5.60;99.90;;;;;;5074554;28;20099;-56
2022/01/15 08:19:22;;;;;;;46.22;18.48;;;5.70;99.90;;;;;;5074123;28;20055;-56
2022/01/15 08:21:47;;;;;;;40.25;17.40;;;5.60;99.90;;;;;;5074006;28;20031;-56
2022/01/15 08:24:13;;;;;;;40.85;17.52;;;5.70;99.90;;;;;;5074117;28;20028;-58
2022/01/15 08:26:39;;;;;;;42.50;16.95;;;5.70;99.90;;;;;;5074370;28;20056;-56
2022/01/15 08:29:04;;;;;;;34.47;15.18;;;5.70;99.90;;;;;;5074353;28;20389;-54
2022/01/15 08:31:30;;;;;;;35.90;16.20;;;5.80;99.90;;;;;;5074259;28;20515;-55
2022/01/15 08:33:56;;;;;;;35.85;15.35;;;5.80;99.90;;;;;;5074063;28;20033;-56
2022/01/15 08:36:22;;;;;;;32.22;15.73;;;5.80;99.90;;;;;;5074047;28;20023;-57
2022/01/15 08:38:48;;;;;;;33.00;15.48;;;5.80;99.90;;;;;;5073521;28;20056;-56
2022/01/15 08:41:14;;;;;;;34.75;15.48;;;5.70;99.90;;;;;;5073498;28;20362;-56
2022/01/15 08:43:42;;;;;;;31.40;15.63;;;5.70;99.90;;;;;;5073532;28;20013;-55
2022/01/15 08:46:08;;;;;;;36.38;16.35;;;5.70;99.90;;;;;;5074126;28;20432;-55
2022/01/15 08:48:34;;;;;;;29.67;14.82;;;5.80;99.90;;;;;;5073652;28;20031;-55
2022/01/15 08:50:59;;;;;;;31.40;15.60;;;5.80;99.90;;;;;;5073272;28;20025;-53
2022/01/15 08:53:25;;;;;;;33.10;14.35;;;5.80;99.90;;;;;;5055807;28;20033;-54
2022/01/15 08:55:51;;;;;;;29.58;14.73;;;5.80;99.90;;;;;;5073763;28;20139;-55
2022/01/15 08:58:16;;;;;;;33.78;16.42;;;5.90;99.90;;;;;;5055076;28;20465;-55
2022/01/15 09:00:42;;;;;;;31.63;15.90;;;5.90;99.90;;;;;;5073590;28;20025;-57
2022/01/15 09:03:08;;;;;;;37.97;16.05;;;5.90;99.90;;;;;;5073496;28;20029;-55
2022/01/15 09:05:35;;;;;;;29.20;14.93;;;6.00;99.90;;;;;;5073099;28;20023;-51
2022/01/15 09:08:03;;;;;;;35.28;16.00;;;6.10;99.90;;;;;;5073230;28;20388;-56
2022/01/15 09:10:28;;;;;;;29.67;14.98;;;6.10;99.90;;;;;;5055311;28;20032;-56
2022/01/15 09:12:54;;;;;;;31.92;15.20;;;6.10;99.90;;;;;;5056240;28;20029;-52
2022/01/15 09:15:20;;;;;;;31.67;15.73;;;6.10;99.90;;;;;;5077023;28;20024;-53
2022/01/15 09:17:45;;;;;;;28.13;15.00;;;6.10;99.90;;;;;;5076980;28;20028;-56
2022/01/15 09:20:12;;;;;;;33.85;15.30;;;6.10;99.90;;;;;;5076730;28;20029;-57
2022/01/15 09:22:37;;;;;;;31.05;14.07;;;6.10;99.90;;;;;;5077266;28;20021;-55
2022/01/15 09:25:03;;;;;;;27.73;15.23;;;6.20;99.90;;;;;;5076745;28;20027;-57
2022/01/15 09:30:14;;;;;;;30.15;14.57;;;6.20;99.90;;;;;;5077107;28;20034;-57
2022/01/15 09:32:48;;;;;;;31.10;15.45;;;6.20;99.90;;;;;;5090751;22;20164;-73
2022/01/15 09:35:17;;;;;;;29.30;14.93;;;6.20;99.90;;;;;;5060842;28;20083;-73
2022/01/15 09:37:43;;;;;;;29.55;14.88;;;6.30;99.90;;;;;;5062089;28;20465;-73
2022/01/15 09:40:10;;;;;;;33.58;15.32;;;6.40;99.90;;;;;;5040283;28;20082;-73
2022/01/15 09:42:40;;;;;;;31.65;15.77;;;6.40;99.90;;;;;;5058186;28;20536;-73
2022/01/15 09:45:08;;;;;;;31.30;15.05;;;6.40;99.90;;;;;;5048899;28;20025;-73
2022/01/15 09:47:34;;;;;;;25.42;13.45;;;6.40;99.90;;;;;;5055299;28;20025;-73
2022/01/15 09:50:02;;;;;;;29.98;13.85;;;6.50;99.90;;;;;;5056109;28;20393;-73
2022/01/15 09:52:30;;;;;;;32.67;14.85;;;6.50;99.90;;;;;;5055901;28;20040;-73
2022/01/15 09:54:56;;;;;;;32.45;15.52;;;6.60;99.90;;;;;;5057440;28;20067;-73
2022/01/15 09:57:21;;;;;;;30.60;15.65;;;6.50;99.90;;;;;;5055566;28;20124;-73
2022/01/15 09:59:47;;;;;;;31.35;13.90;;;6.50;99.90;;;;;;5056695;28;20021;-73
2022/01/15 10:02:13;;;;;;;27.13;13.98;;;6.50;99.90;;;;;;5055557;28;20028;-73
2022/01/15 10:04:38;;;;;;;32.90;14.98;;;6.60;99.90;;;;;;5053562;28;20109;-74
2022/01/15 10:07:12;;;;;;;25.70;14.32;;;6.60;99.90;;;;;;5041582;28;20036;-73
2022/01/15 10:09:39;;;;;;;28.33;14.45;;;6.70;99.90;;;;;;5054437;28;20037;-74
2022/01/15 10:12:05;;;;;;;34.40;15.18;;;6.60;99.90;;;;;;5036141;28;20089;-74
2022/01/15 10:14:37;;;;;;;25.95;14.35;;;6.60;99.90;;;;;;5037116;28;20084;-73
2022/01/15 10:17:19;;;;;;;29.95;13.75;;;6.70;99.90;;;;;;5042622;28;20025;-73
2022/01/15 10:19:45;;;;;;;30.48;14.68;;;6.60;99.90;;;;;;5043149;28;20017;-73
2022/01/15 10:22:14;;;;;;;29.23;16.00;;;6.70;99.90;;;;;;5036001;28;20056;-74
2022/01/15 10:24:42;;;;;;;30.90;15.18;;;6.70;99.90;;;;;;5035104;28;20022;-74
2022/01/15 10:27:29;;;;;;;28.60;14.38;;;6.70;99.90;;;;;;5036513;28;20382;-73
2022/01/15 10:30:00;;;;;;;26.25;14.15;;;6.70;99.90;;;;;;5036508;28;20029;-73
2022/01/15 10:32:28;;;;;;;33.65;14.85;;;6.70;99.90;;;;;;5035891;28;20084;-74
2022/01/15 10:34:55;;;;;;;28.63;14.20;;;6.70;99.90;;;;;;5036161;28;20104;-73
2022/01/15 10:37:28;;;;;;;29.35;14.70;;;6.60;99.90;;;;;;5036352;28;20022;-73
2022/01/15 10:39:56;;;;;;;28.25;14.48;;;6.60;99.90;;;;;;5036079;28;20030;-73
2022/01/15 10:42:23;;;;;;;29.73;15.45;;;6.60;99.90;;;;;;5035962;28;20443;-73
2022/01/15 10:44:51;;;;;;;31.88;16.10;;;6.50;99.90;;;;;;5035412;28;20057;-74
2022/01/15 10:47:19;;;;;;;33.53;16.45;;;6.60;99.90;;;;;;5041906;28;20025;-73
2022/01/15 10:49:45;;;;;;;28.58;15.15;;;6.50;99.90;;;;;;5039083;28;20518;-73
2022/01/15 10:52:12;;;;;;;33.92;16.02;;;6.60;99.90;;;;;;5029659;28;20032;-73
2022/01/15 10:54:52;;;;;;;35.95;16.00;;;6.70;99.90;;;;;;5025085;28;20029;-73
2022/01/15 10:57:23;;;;;;;33.00;15.20;;;6.80;99.90;;;;;;5047838;28;20104;-73
2022/01/15 11:00:04;;;;;;;30.02;14.10;;;6.70;99.90;;;;;;5022364;28;20028;-72
2022/01/15 11:02:30;;;;;;;29.75;15.32;;;6.70;99.90;;;;;;5027783;28;20460;-73
2022/01/15 11:04:56;;;;;;;28.35;14.23;;;6.70;99.90;;;;;;5032324;28;20049;-73
2022/01/15 11:07:22;;;;;;;29.85;15.75;;;6.70;99.90;;;;;;5028407;28;20025;-72
2022/01/15 11:09:56;;;;;;;30.45;13.90;;;6.70;99.90;;;;;;5026480;28;20017;-72
2022/01/15 11:12:28;;;;;;;29.80;11.85;;;6.80;99.90;;;;;;5033792;28;20034;-72
2022/01/15 11:14:54;;;;;;;32.65;13.85;;;6.90;99.90;;;;;;5032158;28;20103;-73
2022/01/15 11:17:20;;;;;;;27.95;13.35;;;6.90;99.90;;;;;;5040754;28;20029;-72
2022/01/15 11:19:49;;;;;;;31.77;13.70;;;6.90;99.90;;;;;;5028172;28;20116;-73
2022/01/15 11:22:19;;;;;;;27.05;11.10;;;6.90;99.90;;;;;;5030496;28;20419;-73
2022/01/15 11:24:45;;;;;;;25.27;7.03;;;7.10;99.90;;;;;;5035991;28;20037;-73
2022/01/15 11:27:11;;;;;;;23.42;7.07;;;7.10;99.90;;;;;;5038616;28;20079;-73
2022/01/15 11:29:41;;;;;;;21.08;7.78;;;7.10;99.90;;;;;;5041322;28;20021;-72
2022/01/15 11:32:08;;;;;;;16.75;8.40;;;7.00;99.90;;;;;;5043744;28;20479;-72
2022/01/15 11:34:34;;;;;;;25.20;7.57;;;7.00;99.90;;;;;;5045381;28;20457;-72
2022/01/15 11:37:17;;;;;;;17.52;6.07;;;7.00;99.90;;;;;;5036876;28;20025;-72
2022/01/15 11:39:44;;;;;;;18.33;5.88;;;7.20;99.90;;;;;;5035524;28;20033;-72
2022/01/15 11:42:27;;;;;;;23.20;5.10;;;7.20;99.90;;;;;;5035971;28;20057;-72
2022/01/15 11:44:54;;;;;;;17.88;3.88;;;7.40;99.90;;;;;;5038503;28;20071;-72
2022/01/15 11:47:23;;;;;;;25.08;4.97;;;7.40;99.90;;;;;;5041947;28;20033;-71
2022/01/15 11:49:51;;;;;;;20.90;4.75;;;7.50;99.90;;;;;;5036281;28;20056;-71
2022/01/15 11:52:18;;;;;;;20.50;4.53;;;7.40;99.90;;;;;;5035898;28;20025;-72
2022/01/15 11:54:58;;;;;;;20.95;5.10;;;7.50;99.90;;;;;;5035050;28;20328;-73
2022/01/15 11:57:30;;;;;;;16.08;4.97;;;7.70;99.90;;;;;;5035177;28;20057;-73
2022/01/15 11:59:57;;;;;;;16.20;4.18;;;7.80;99.90;;;;;;5036195;28;20018;-72
2022/01/15 12:02:30;;;;;;;14.80;5.97;;;7.80;99.90;;;;;;5034836;28;20029;-72
2022/01/15 12:05:27;;;;;;;13.55;5.38;;;7.80;99.90;;;;;;5034631;28;20022;-72
2022/01/15 12:08:02;;;;;;;13.50;5.45;;;7.90;99.90;;;;;;5034620;28;20025;-73
2022/01/15 12:10:41;;;;;;;19.98;6.05;;;7.90;99.90;;;;;;5035245;28;20352;-73
2022/01/15 12:13:11;;;;;;;20.92;6.65;;;7.80;99.90;;;;;;5035097;28;20025;-72
2022/01/15 12:15:37;;;;;;;20.15;7.97;;;7.70;99.90;;;;;;5033363;28;20032;-72
2022/01/15 12:18:14;;;;;;;89.07;81.15;;;7.70;99.90;;;;;;5032896;28;20382;-72
2022/01/15 12:20:40;;;;;;;20.65;8.48;;;7.60;99.90;;;;;;5032925;28;20036;-72
2022/01/15 12:23:23;;;;;;;27.92;7.80;;;7.60;99.90;;;;;;5034284;28;20375;-72
2022/01/15 12:25:55;;;;;;;23.35;6.68;;;7.60;99.90;;;;;;5034410;28;20109;-73
2022/01/15 12:28:23;;;;;;;24.90;7.32;;;7.50;99.90;;;;;;5034640;28;20184;-72
2022/01/15 12:30:50;;;;;;;16.88;6.68;;;7.50;99.90;;;;;;5035907;28;20030;-72
2022/01/15 12:33:18;;;;;;;19.98;7.00;;;7.50;99.90;;;;;;5039080;28;20040;-73
2022/01/15 12:35:47;;;;;;;21.10;7.10;;;7.50;99.90;;;;;;5035164;28;20068;-72
2022/01/15 12:38:26;;;;;;;22.20;6.10;;;7.50;99.90;;;;;;5034372;28;20017;-73
2022/01/15 12:41:02;;;;;;;19.35;6.82;;;7.40;99.90;;;;;;5034137;28;20026;-73
2022/01/15 12:43:30;;;;;;;21.02;7.70;;;7.50;99.90;;;;;;5034865;28;20053;-73
2022/01/15 12:46:12;;;;;;;24.48;6.63;;;7.50;99.90;;;;;;5033748;28;20387;-73
2022/01/15 12:48:44;;;;;;;17.65;6.85;;;7.50;99.90;;;;;;5032983;28;20352;-73
2022/01/15 12:51:14;;;;;;;25.13;7.30;;;7.50;99.90;;;;;;5043188;28;20025;-73
2022/01/15 12:53:45;;;;;;;13.10;5.70;;;7.50;99.90;;;;;;5032218;28;20021;-73
2022/01/15 12:56:13;;;;;;;23.67;6.40;;;7.50;99.90;;;;;;5034392;28;20024;-73
2022/01/15 12:58:39;;;;;;;16.30;6.35;;;7.40;99.90;;;;;;5033403;28;20036;-73
2022/01/15 13:01:05;;;;;;;15.43;5.50;;;7.50;99.90;;;;;;5033295;28;20021;-73